Time;durP1;ratioP1;P1;durP2;ratioP2;P2;SDS_P1;SDS_P2;PMS_P1;PMS_P2;Temp;Humidity;BMP_temperature;BMP_pressure;BME280_temperature;BME280_humidity;BME280_pressure;Samples;Min_cycle;Max_cycle;Signal;HPM_P1;HPM_P2
2023/08/14 00:01:03;;;;;;;1.55;1.00;;;22.30;99.90;;;;;;5093340;28;20857;-53
2023/08/14 00:03:30;;;;;;;1.70;1.00;;;22.30;99.90;;;;;;5090771;28;20529;-57
2023/08/14 00:05:57;;;;;;;2.33;1.02;;;22.30;99.90;;;;;;5075726;28;20510;-56
2023/08/14 00:08:24;;;;;;;1.88;1.00;;;22.20;99.90;;;;;;5077350;28;20522;-55
2023/08/14 00:10:50;;;;;;;1.50;1.00;;;22.20;99.90;;;;;;5095579;28;20512;-55
2023/08/14 00:13:20;;;;;;;2.28;1.00;;;22.30;99.90;;;;;;5091538;28;20899;-54
2023/08/14 00:15:47;;;;;;;2.08;1.00;;;22.30;99.90;;;;;;5116505;28;20806;-54
2023/08/14 00:18:14;;;;;;;2.00;0.90;;;22.30;99.90;;;;;;5110190;28;20516;-56
2023/08/14 00:20:41;;;;;;;1.60;1.10;;;22.40;99.90;;;;;;5095899;28;20520;-56
2023/08/14 00:23:08;;;;;;;1.30;0.90;;;22.40;99.90;;;;;;5090724;28;20445;-54
2023/08/14 00:25:35;;;;;;;2.20;0.90;;;22.40;99.90;;;;;;5075081;28;20423;-56
2023/08/14 00:28:02;;;;;;;1.50;0.90;;;22.50;99.90;;;;;;5075127;28;20514;-56
2023/08/14 00:30:30;;;;;;;1.30;0.90;;;22.50;99.90;;;;;;5075733;28;20865;-56
2023/08/14 00:32:57;;;;;;;1.13;0.90;;;22.50;99.90;;;;;;5078911;28;20936;-56
2023/08/14 00:35:24;;;;;;;1.90;0.90;;;22.40;99.90;;;;;;5075537;28;20437;-56
2023/08/14 00:37:51;;;;;;;1.50;0.80;;;22.50;99.90;;;;;;5078947;28;20932;-57
2023/08/14 00:40:18;;;;;;;1.20;1.00;;;22.50;99.90;;;;;;5096036;28;20497;-59
2023/08/14 00:42:48;;;;;;;1.90;0.90;;;22.50;99.90;;;;;;5093091;28;20417;-55
2023/08/14 00:45:15;;;;;;;2.43;0.90;;;22.50;99.90;;;;;;5095253;28;20864;-57
2023/08/14 00:47:46;;;;;;;1.20;0.90;;;22.50;99.90;;;;;;5084479;28;20569;-57
2023/08/14 00:50:13;;;;;;;2.20;1.00;;;22.60;99.90;;;;;;5075012;28;20550;-56
2023/08/14 00:52:44;;;;;;;2.40;0.90;;;22.60;99.90;;;;;;5078202;28;20806;-56
2023/08/14 00:55:14;;;;;;;1.83;0.90;;;22.70;99.90;;;;;;5074882;28;20518;-54
2023/08/14 00:57:41;;;;;;;2.15;0.90;;;22.70;99.90;;;;;;5085389;28;20536;-56
2023/08/14 01:00:09;;;;;;;2.30;1.10;;;22.70;99.90;;;;;;5095474;28;20516;-54
2023/08/14 01:02:37;;;;;;;1.25;0.98;;;22.70;99.90;;;;;;5081331;28;20738;-54
2023/08/14 01:05:07;;;;;;;1.60;1.00;;;22.50;99.90;;;;;;5074816;28;20716;-54
2023/08/14 01:07:34;;;;;;;2.20;1.00;;;22.30;99.90;;;;;;5087162;28;20895;-56
2023/08/14 01:10:02;;;;;;;2.00;1.00;;;22.20;99.90;;;;;;5094982;28;20853;-55
2023/08/14 01:12:42;;;;;;;1.50;0.93;;;22.10;99.90;;;;;;5075479;28;20445;-56
2023/08/14 01:15:14;;;;;;;1.40;1.00;;;22.00;99.90;;;;;;5075690;28;20428;-55
2023/08/14 01:17:47;;;;;;;1.30;0.95;;;21.90;99.90;;;;;;5076636;28;20514;-56
2023/08/14 01:20:18;;;;;;;1.50;0.90;;;21.90;99.90;;;;;;5077226;28;20509;-55
2023/08/14 01:22:56;;;;;;;1.50;0.90;;;22.00;99.90;;;;;;5074431;28;20512;-56
2023/08/14 01:25:31;;;;;;;1.30;0.90;;;22.00;99.90;;;;;;5079883;28;20428;-55
2023/08/14 01:27:59;;;;;;;1.30;0.95;;;22.10;99.90;;;;;;5114475;28;20420;-55
2023/08/14 01:30:26;;;;;;;1.50;1.00;;;22.20;99.90;;;;;;5100395;28;21140;-56
2023/08/14 01:32:53;;;;;;;1.20;0.90;;;22.30;99.90;;;;;;5094874;28;20751;-56
2023/08/14 01:35:22;;;;;;;1.40;1.00;;;22.40;99.90;;;;;;5092788;28;20531;-54
2023/08/14 01:37:59;;;;;;;2.65;1.02;;;22.40;99.90;;;;;;5095287;28;20535;-53
2023/08/14 01:40:35;;;;;;;2.00;1.10;;;22.40;99.90;;;;;;5084850;28;20492;-55
2023/08/14 01:43:08;;;;;;;3.15;1.20;;;22.30;99.90;;;;;;5074155;28;20459;-51
2023/08/14 01:45:36;;;;;;;1.80;1.10;;;22.30;99.90;;;;;;5074078;28;20541;-54
2023/08/14 01:48:07;;;;;;;2.10;1.10;;;22.30;99.90;;;;;;5074426;28;20817;-54
2023/08/14 01:50:35;;;;;;;1.80;1.10;;;22.30;99.90;;;;;;5075088;28;20538;-54
2023/08/14 01:53:02;;;;;;;1.70;0.90;;;22.20;99.90;;;;;;5074927;28;20426;-54
2023/08/14 01:55:30;;;;;;;1.20;0.90;;;22.10;99.90;;;;;;5073743;28;20824;-53
2023/08/14 01:57:57;;;;;;;1.60;1.10;;;22.20;99.90;;;;;;5074597;28;20809;-51
2023/08/14 02:00:24;;;;;;;1.50;1.10;;;22.10;99.90;;;;;;5087506;28;20531;-53
2023/08/14 02:02:51;;;;;;;1.40;1.10;;;22.10;99.90;;;;;;5093080;28;20483;-48
2023/08/14 02:05:18;;;;;;;2.05;1.00;;;22.00;99.90;;;;;;5073592;28;20769;-50
2023/08/14 02:07:45;;;;;;;1.90;1.10;;;22.00;99.90;;;;;;5074105;28;20919;-49
2023/08/14 02:10:12;;;;;;;2.90;1.10;;;21.90;99.90;;;;;;5092996;28;20951;-50
2023/08/14 02:12:40;;;;;;;1.80;1.10;;;21.90;99.90;;;;;;5090734;28;20562;-49
2023/08/14 02:15:07;;;;;;;2.30;1.00;;;22.00;99.90;;;;;;5091725;28;20516;-53
2023/08/14 02:17:34;;;;;;;1.50;1.00;;;21.90;99.90;;;;;;5091825;28;20971;-49
2023/08/14 02:20:01;;;;;;;2.97;0.98;;;21.70;99.90;;;;;;5077819;28;20815;-52
2023/08/14 02:22:28;;;;;;;1.70;1.00;;;21.60;99.90;;;;;;5077547;28;20786;-52
2023/08/14 02:24:55;;;;;;;1.30;1.00;;;21.50;99.90;;;;;;5077435;28;20510;-51
2023/08/14 02:27:22;;;;;;;3.08;0.90;;;21.40;99.90;;;;;;5081442;28;20525;-50
2023/08/14 02:29:50;;;;;;;1.92;0.90;;;21.40;99.90;;;;;;5078349;28;20521;-54
2023/08/14 02:32:17;;;;;;;1.10;0.90;;;21.30;99.90;;;;;;5079822;28;20478;-54
2023/08/14 02:34:46;;;;;;;1.48;0.82;;;21.30;99.90;;;;;;5078295;28;20520;-50
2023/08/14 02:37:14;;;;;;;1.60;0.80;;;21.20;99.90;;;;;;5080807;28;20510;-52
2023/08/14 02:39:41;;;;;;;1.90;0.80;;;21.10;99.90;;;;;;5078549;28;20419;-54
2023/08/14 02:42:08;;;;;;;1.00;0.70;;;21.00;99.90;;;;;;5079049;28;20522;-47
2023/08/14 02:44:35;;;;;;;1.23;0.90;;;20.90;99.90;;;;;;5078508;28;20517;-56
2023/08/14 02:47:04;;;;;;;1.65;0.90;;;20.80;99.90;;;;;;5084024;28;20516;-55
2023/08/14 02:49:31;;;;;;;1.00;0.70;;;20.90;99.90;;;;;;5098285;28;20781;-54
2023/08/14 02:51:58;;;;;;;1.20;0.70;;;20.80;99.90;;;;;;5085734;28;20518;-50
2023/08/14 02:54:26;;;;;;;2.70;0.80;;;20.70;99.90;;;;;;5078099;28;20523;-52
2023/08/14 02:56:52;;;;;;;0.90;0.60;;;20.60;99.90;;;;;;5082848;28;20441;-50
2023/08/14 02:59:20;;;;;;;0.90;0.70;;;20.60;99.90;;;;;;5077892;28;20911;-52
2023/08/14 03:01:47;;;;;;;0.90;0.60;;;20.60;99.90;;;;;;5084536;28;20512;-50
2023/08/14 03:04:16;;;;;;;0.80;0.60;;;20.60;99.90;;;;;;5097767;28;20797;-49
2023/08/14 03:06:43;;;;;;;2.70;0.70;;;20.60;99.90;;;;;;5088282;28;20459;-50
2023/08/14 03:09:10;;;;;;;1.02;0.73;;;20.60;99.90;;;;;;5077655;28;20435;-55
2023/08/14 03:11:37;;;;;;;1.40;0.70;;;20.50;99.90;;;;;;5085082;28;20482;-50
2023/08/14 03:14:05;;;;;;;1.60;0.70;;;20.40;99.90;;;;;;5097298;28;20508;-52
2023/08/14 03:16:31;;;;;;;1.88;0.80;;;20.30;99.90;;;;;;5082238;28;20522;-49
2023/08/14 03:18:58;;;;;;;1.00;0.80;;;20.40;99.90;;;;;;5075210;28;20793;-53
2023/08/14 03:21:26;;;;;;;1.13;0.70;;;20.30;99.90;;;;;;5075398;28;20567;-50
2023/08/14 03:23:53;;;;;;;2.05;0.80;;;20.30;99.90;;;;;;5074935;28;20538;-49
2023/08/14 03:26:20;;;;;;;1.30;0.70;;;20.30;99.90;;;;;;5074684;28;20518;-55
2023/08/14 03:28:47;;;;;;;1.30;0.70;;;20.10;99.90;;;;;;5074920;28;20518;-54
2023/08/14 03:31:14;;;;;;;1.70;0.90;;;20.10;99.90;;;;;;5075775;28;20855;-50
2023/08/14 03:33:41;;;;;;;1.00;0.80;;;20.00;99.90;;;;;;5077290;28;20463;-54
2023/08/14 03:36:08;;;;;;;1.00;0.70;;;20.00;99.90;;;;;;5077277;28;20471;-52
2023/08/14 03:38:36;;;;;;;0.90;0.70;;;20.00;99.90;;;;;;5077255;28;20458;-52
2023/08/14 03:41:04;;;;;;;1.20;0.82;;;19.90;99.90;;;;;;5077266;28;20537;-51
2023/08/14 03:43:31;;;;;;;1.50;0.70;;;19.90;99.90;;;;;;5077247;28;20734;-55
2023/08/14 03:45:58;;;;;;;1.60;0.80;;;19.90;99.90;;;;;;5076998;28;20771;-51
2023/08/14 03:48:26;;;;;;;1.20;0.80;;;19.90;99.90;;;;;;5076583;28;20521;-53
2023/08/14 03:50:53;;;;;;;1.60;0.90;;;19.90;99.90;;;;;;5076734;28;20506;-54
2023/08/14 03:53:20;;;;;;;1.73;0.90;;;19.90;99.90;;;;;;5076423;28;20617;-52
2023/08/14 03:55:49;;;;;;;2.60;0.90;;;19.90;99.90;;;;;;5076868;28;20497;-53
2023/08/14 03:58:16;;;;;;;1.50;0.82;;;19.90;99.90;;;;;;5077217;28;20408;-53
2023/08/14 04:00:43;;;;;;;1.80;0.80;;;19.90;99.90;;;;;;5076922;28;20485;-54
2023/08/14 04:03:10;;;;;;;2.40;0.80;;;19.90;99.90;;;;;;5075853;28;20862;-52
2023/08/14 04:05:40;;;;;;;1.23;0.80;;;19.90;99.90;;;;;;5076452;28;20455;-50
2023/08/14 04:08:07;;;;;;;1.13;0.80;;;19.90;99.90;;;;;;5076179;28;20686;-54
2023/08/14 04:10:34;;;;;;;1.50;0.70;;;20.00;99.90;;;;;;5076186;28;20710;-53
2023/08/14 04:13:03;;;;;;;1.48;0.60;;;20.10;99.90;;;;;;5076372;28;20507;-51
2023/08/14 04:15:30;;;;;;;3.00;1.40;;;20.00;99.90;;;;;;5076239;28;20526;-53
2023/08/14 04:17:57;;;;;;;1.80;0.85;;;20.00;99.90;;;;;;5079409;28;20537;-51
2023/08/14 04:20:24;;;;;;;1.23;0.70;;;20.00;99.90;;;;;;5091249;28;20430;-51
2023/08/14 04:22:51;;;;;;;1.30;0.80;;;20.00;99.90;;;;;;5083638;28;20517;-53
2023/08/14 04:25:19;;;;;;;1.70;0.70;;;19.90;99.90;;;;;;5095059;28;20508;-51
2023/08/14 04:27:47;;;;;;;0.80;0.60;;;19.90;99.90;;;;;;5095760;28;20405;-52
2023/08/14 04:30:15;;;;;;;0.90;0.70;;;19.90;99.90;;;;;;5095195;28;20887;-53
2023/08/14 04:32:42;;;;;;;0.90;0.70;;;20.10;99.90;;;;;;5095845;28;20509;-54
2023/08/14 04:35:10;;;;;;;1.40;0.68;;;20.10;99.90;;;;;;5095518;28;20849;-53
2023/08/14 04:37:36;;;;;;;1.20;0.60;;;20.20;99.90;;;;;;5095984;28;20441;-53
2023/08/14 04:40:04;;;;;;;1.00;0.70;;;20.20;99.90;;;;;;5095633;28;20405;-50
2023/08/14 04:42:32;;;;;;;1.00;0.60;;;20.30;99.90;;;;;;5096258;28;20526;-53
2023/08/14 04:44:59;;;;;;;1.00;0.60;;;20.30;99.90;;;;;;5095699;28;20421;-54
2023/08/14 04:47:27;;;;;;;0.88;0.60;;;20.30;99.90;;;;;;5095665;28;20777;-53
2023/08/14 04:49:54;;;;;;;1.02;0.70;;;20.30;99.90;;;;;;5094057;28;20449;-53
2023/08/14 04:52:22;;;;;;;1.00;0.60;;;20.40;99.90;;;;;;5090125;28;20770;-51
2023/08/14 04:54:49;;;;;;;0.95;0.60;;;20.40;99.90;;;;;;5094086;28;20410;-54
2023/08/14 04:57:16;;;;;;;1.30;0.60;;;20.40;99.90;;;;;;5093786;28;20521;-53
2023/08/14 04:59:43;;;;;;;0.70;0.60;;;20.40;99.90;;;;;;5094340;28;20422;-54
2023/08/14 05:02:10;;;;;;;0.90;0.60;;;20.40;99.90;;;;;;5094333;28;20516;-53
2023/08/14 05:04:38;;;;;;;0.80;0.60;;;20.50;99.90;;;;;;5094996;28;20505;-54
2023/08/14 05:07:05;;;;;;;1.10;0.60;;;20.50;99.90;;;;;;5093666;28;20501;-52
2023/08/14 05:09:32;;;;;;;0.70;0.60;;;20.50;99.90;;;;;;5093428;28;20509;-54
2023/08/14 05:11:59;;;;;;;1.00;0.60;;;20.50;99.90;;;;;;5093446;28;20422;-54
2023/08/14 05:14:26;;;;;;;0.90;0.60;;;20.50;99.90;;;;;;5093808;28;20428;-54
2023/08/14 05:16:53;;;;;;;1.20;0.50;;;20.50;99.90;;;;;;5093812;28;20524;-53
2023/08/14 05:19:20;;;;;;;1.40;0.60;;;20.50;99.90;;;;;;5085132;28;20533;-51
2023/08/14 05:21:49;;;;;;;1.60;0.60;;;20.50;99.90;;;;;;5091380;28;20512;-52
2023/08/14 05:24:16;;;;;;;0.77;0.50;;;20.60;99.90;;;;;;5086888;28;20901;-55
2023/08/14 05:26:43;;;;;;;1.10;0.50;;;20.70;99.90;;;;;;5088913;28;20500;-53
2023/08/14 05:29:10;;;;;;;1.00;0.60;;;20.80;99.90;;;;;;5084063;28;20443;-52
2023/08/14 05:31:37;;;;;;;1.70;0.70;;;20.80;99.90;;;;;;5090973;28;20457;-54
2023/08/14 05:34:04;;;;;;;0.80;0.60;;;20.90;99.90;;;;;;5086435;28;20764;-54
2023/08/14 05:36:31;;;;;;;1.60;0.60;;;20.90;99.90;;;;;;5092539;28;20464;-51
2023/08/14 05:38:59;;;;;;;1.20;0.50;;;20.80;99.90;;;;;;5087868;28;20470;-54
2023/08/14 05:41:26;;;;;;;1.35;0.60;;;20.70;99.90;;;;;;5071851;28;20492;-52
2023/08/14 05:43:53;;;;;;;0.90;0.60;;;20.70;99.90;;;;;;5077350;28;20785;-55
2023/08/14 05:46:23;;;;;;;0.93;0.60;;;20.70;99.90;;;;;;5093843;28;20509;-54
2023/08/14 05:48:50;;;;;;;1.40;0.50;;;20.80;99.90;;;;;;5086410;28;20769;-52
2023/08/14 05:51:17;;;;;;;1.10;0.60;;;20.80;99.90;;;;;;5072149;28;20498;-53
2023/08/14 05:53:44;;;;;;;0.95;0.70;;;20.80;99.90;;;;;;5074139;28;20440;-56
2023/08/14 05:56:12;;;;;;;0.80;0.60;;;20.80;99.90;;;;;;5071867;28;20434;-56
2023/08/14 05:58:39;;;;;;;0.80;0.50;;;20.90;99.90;;;;;;5073259;28;20854;-53
2023/08/14 06:01:06;;;;;;;1.05;0.68;;;20.90;99.90;;;;;;5072963;28;20403;-54
2023/08/14 06:03:33;;;;;;;1.00;0.60;;;20.90;99.90;;;;;;5079140;28;20524;-53
2023/08/14 06:06:00;;;;;;;0.93;0.60;;;20.90;99.90;;;;;;5092488;28;20417;-55
2023/08/14 06:08:27;;;;;;;0.90;0.60;;;20.90;99.90;;;;;;5075739;28;20467;-55
2023/08/14 06:10:54;;;;;;;1.53;0.60;;;20.90;99.90;;;;;;5071981;28;20453;-55
2023/08/14 06:13:22;;;;;;;1.10;0.70;;;20.90;99.90;;;;;;5069761;28;20481;-55
2023/08/14 06:15:49;;;;;;;0.82;0.70;;;20.80;99.90;;;;;;5071235;28;20510;-55
2023/08/14 06:18:16;;;;;;;1.50;0.60;;;20.90;99.90;;;;;;5071808;28;20459;-55
2023/08/14 06:20:43;;;;;;;1.30;0.60;;;20.90;99.90;;;;;;5071868;28;20480;-54
2023/08/14 06:23:10;;;;;;;0.90;0.60;;;21.00;99.90;;;;;;5064813;28;20457;-54
2023/08/14 06:25:37;;;;;;;0.90;0.60;;;21.00;99.90;;;;;;5074559;28;20430;-54
2023/08/14 06:28:04;;;;;;;0.80;0.70;;;21.10;99.90;;;;;;5087650;28;20878;-54
2023/08/14 06:30:32;;;;;;;0.98;0.60;;;21.20;99.90;;;;;;5088348;28;20524;-52
2023/08/14 06:33:00;;;;;;;1.00;0.65;;;21.20;99.90;;;;;;5082759;28;20441;-50
2023/08/14 06:35:27;;;;;;;0.90;0.60;;;21.20;99.90;;;;;;5092577;28;20429;-52
2023/08/14 06:37:54;;;;;;;1.00;0.60;;;21.20;99.90;;;;;;5084696;28;20532;-52
2023/08/14 06:40:21;;;;;;;0.90;0.60;;;21.20;99.90;;;;;;5089417;28;20414;-52
2023/08/14 06:42:47;;;;;;;0.90;0.60;;;21.40;99.90;;;;;;5076197;28;20466;-57
2023/08/14 06:45:15;;;;;;;0.90;0.60;;;21.50;99.90;;;;;;5072456;28;20695;-52
2023/08/14 06:47:45;;;;;;;0.80;0.60;;;21.60;99.90;;;;;;5081325;28;20437;-52
2023/08/14 06:50:12;;;;;;;0.80;0.50;;;21.80;99.90;;;;;;5092801;28;20436;-49
2023/08/14 06:52:39;;;;;;;0.90;0.60;;;21.90;99.90;;;;;;5083766;28;20520;-51
2023/08/14 06:55:07;;;;;;;1.20;0.60;;;21.90;99.90;;;;;;5091073;28;20496;-53
2023/08/14 06:57:34;;;;;;;0.88;0.60;;;21.90;99.90;;;;;;5086480;28;20451;-51
2023/08/14 07:00:06;;;;;;;1.00;0.70;;;21.90;99.90;;;;;;5089190;28;20520;-51
2023/08/14 07:02:33;;;;;;;1.30;0.60;;;21.80;99.90;;;;;;5088319;28;20730;-53
2023/08/14 07:05:01;;;;;;;1.27;0.70;;;21.80;99.90;;;;;;5090188;28;20835;-52
2023/08/14 07:07:28;;;;;;;1.10;0.70;;;21.80;99.90;;;;;;5092756;28;20513;-50
2023/08/14 07:09:56;;;;;;;2.40;0.70;;;21.90;99.90;;;;;;5089708;28;20530;-53
2023/08/14 07:12:23;;;;;;;1.40;0.70;;;22.00;99.90;;;;;;5093323;28;20868;-51
2023/08/14 07:14:50;;;;;;;1.00;0.70;;;22.10;99.90;;;;;;5090952;28;20488;-53
2023/08/14 07:17:17;;;;;;;1.00;0.70;;;22.20;99.90;;;;;;5074081;28;20866;-51
2023/08/14 07:19:44;;;;;;;1.30;0.77;;;22.20;99.90;;;;;;5077916;28;20764;-53
2023/08/14 07:22:12;;;;;;;1.30;0.70;;;22.20;99.90;;;;;;5072522;28;20510;-53
2023/08/14 07:24:39;;;;;;;1.30;0.60;;;22.20;99.90;;;;;;5070894;28;20838;-51
2023/08/14 07:27:06;;;;;;;1.10;0.50;;;22.20;99.90;;;;;;5076255;28;20494;-51
2023/08/14 07:29:33;;;;;;;0.82;0.60;;;22.30;99.90;;;;;;5077884;28;20529;-53
2023/08/14 07:32:00;;;;;;;1.40;0.70;;;22.50;99.90;;;;;;5074938;28;20525;-52
2023/08/14 07:34:27;;;;;;;1.60;0.70;;;22.60;99.90;;;;;;5076403;28;20606;-54
2023/08/14 07:36:54;;;;;;;1.30;0.63;;;22.70;99.90;;;;;;5074598;28;20420;-53
2023/08/14 07:39:22;;;;;;;1.30;0.70;;;22.80;99.90;;;;;;5078780;28;20431;-49
2023/08/14 07:41:49;;;;;;;1.20;0.60;;;23.00;99.90;;;;;;5076297;28;20424;-51
2023/08/14 07:44:16;;;;;;;0.70;0.50;;;23.00;99.90;;;;;;5079875;28;20544;-54
2023/08/14 07:46:43;;;;;;;0.90;0.60;;;23.10;99.90;;;;;;5091707;28;20799;-53
2023/08/14 07:49:10;;;;;;;1.40;0.60;;;23.10;99.90;;;;;;5089435;28;20500;-52
2023/08/14 07:51:36;;;;;;;0.90;0.70;;;23.20;99.90;;;;;;5095283;28;20501;-52
2023/08/14 07:54:04;;;;;;;0.90;0.60;;;23.20;99.90;;;;;;5081935;28;20431;-53
2023/08/14 07:56:32;;;;;;;0.90;0.70;;;23.30;99.90;;;;;;5092805;28;20487;-54
2023/08/14 07:59:00;;;;;;;1.10;0.60;;;23.40;99.90;;;;;;5088367;28;20429;-56
2023/08/14 08:01:27;;;;;;;0.80;0.60;;;23.50;99.90;;;;;;5093780;28;20456;-56
2023/08/14 08:03:54;;;;;;;1.27;0.60;;;23.60;99.90;;;;;;5079186;28;20433;-56
2023/08/14 08:06:21;;;;;;;0.90;0.60;;;23.80;99.90;;;;;;5074901;28;20711;-56
2023/08/14 08:08:48;;;;;;;0.98;0.73;;;23.90;99.90;;;;;;5090628;28;20528;-56
2023/08/14 08:11:15;;;;;;;0.90;0.65;;;24.00;99.90;;;;;;5094631;28;20529;-53
2023/08/14 08:13:43;;;;;;;1.30;0.60;;;24.10;99.90;;;;;;5088005;28;20528;-57
2023/08/14 08:16:10;;;;;;;1.10;0.60;;;24.30;99.90;;;;;;5091365;28;20520;-55
2023/08/14 08:18:37;;;;;;;1.00;0.60;;;24.30;99.90;;;;;;5094656;28;20524;-54
2023/08/14 08:21:04;;;;;;;0.80;0.60;;;24.30;99.90;;;;;;5091913;28;20502;-50
2023/08/14 08:23:30;;;;;;;0.80;0.50;;;24.30;99.90;;;;;;5087832;28;20418;-56
2023/08/14 08:25:57;;;;;;;1.25;0.60;;;24.40;90.90;;;;;;5091877;28;20479;-51
2023/08/14 08:28:24;;;;;;;0.80;0.50;;;24.60;79.60;;;;;;5093501;28;20501;-57
2023/08/14 08:30:52;;;;;;;2.10;0.60;;;24.70;78.20;;;;;;5087793;28;20742;-52
2023/08/14 08:33:19;;;;;;;0.90;0.60;;;24.90;64.60;;;;;;5088283;28;20910;-55
2023/08/14 08:35:46;;;;;;;1.40;0.60;;;25.00;58.70;;;;;;5082467;28;20806;-56
2023/08/14 08:38:13;;;;;;;0.82;0.60;;;25.20;30.50;;;;;;5092091;28;20430;-54
2023/08/14 08:40:42;;;;;;;0.70;0.50;;;25.20;32.00;;;;;;5086233;28;20515;-55
2023/08/14 08:43:11;;;;;;;0.90;0.70;;;25.20;12.20;;;;;;5091269;28;20516;-52
2023/08/14 08:45:40;;;;;;;0.90;0.60;;;25.30;10.30;;;;;;5087205;28;20536;-53
2023/08/14 08:48:08;;;;;;;0.70;0.50;;;25.40;1.00;;;;;;5093289;28;20518;-54
2023/08/14 08:50:35;;;;;;;0.70;0.50;;;25.50;1.00;;;;;;5087910;28;20522;-56
2023/08/14 08:53:03;;;;;;;1.00;0.50;;;25.60;1.00;;;;;;5073941;28;20808;-57
2023/08/14 08:55:30;;;;;;;0.80;0.50;;;25.70;1.00;;;;;;5080700;28;20508;-55
2023/08/14 08:57:58;;;;;;;1.50;0.50;;;25.90;1.00;;;;;;5087558;28;20429;-55
2023/08/14 09:00:25;;;;;;;1.52;0.60;;;25.90;1.00;;;;;;5090951;28;20490;-55
2023/08/14 09:02:52;;;;;;;1.80;0.60;;;26.10;1.00;;;;;;5112386;28;20922;-53
2023/08/14 09:05:21;;;;;;;1.20;0.60;;;26.20;1.00;;;;;;5084821;28;20537;-56
2023/08/14 09:07:49;;;;;;;0.95;0.70;;;26.20;1.00;;;;;;5069829;28;20514;-56
2023/08/14 09:10:16;;;;;;;1.40;0.70;;;26.40;1.00;;;;;;5078463;28;20429;-54
2023/08/14 09:12:44;;;;;;;0.90;0.60;;;26.50;1.00;;;;;;5090877;28;20505;-55
2023/08/14 09:15:11;;;;;;;1.77;0.70;;;26.70;1.00;;;;;;5085702;28;20516;-56
2023/08/14 09:17:38;;;;;;;1.02;0.80;;;26.70;1.00;;;;;;5082513;28;20815;-55
2023/08/14 09:20:08;;;;;;;1.00;0.70;;;26.80;1.00;;;;;;5083021;28;21127;-54
2023/08/14 09:22:38;;;;;;;1.30;0.80;;;26.80;1.00;;;;;;5078295;28;20428;-53
2023/08/14 09:25:06;;;;;;;1.20;0.70;;;26.90;1.00;;;;;;5072089;28;20472;-56
2023/08/14 09:27:34;;;;;;;1.20;0.60;;;27.00;1.00;;;;;;5072130;28;20730;-54
2023/08/14 09:30:01;;;;;;;0.95;0.70;;;27.10;1.00;;;;;;5072240;28;21155;-56
2023/08/14 09:32:29;;;;;;;1.40;0.70;;;27.30;1.00;;;;;;5071976;28;20427;-53
2023/08/14 09:34:59;;;;;;;1.20;0.80;;;27.40;1.00;;;;;;5071808;28;20523;-54
2023/08/14 09:37:27;;;;;;;1.50;0.80;;;27.40;1.00;;;;;;5076607;28;20445;-55
2023/08/14 09:40:10;;;;;;;1.50;0.70;;;27.40;1.00;;;;;;5091791;28;20841;-56
2023/08/14 09:42:38;;;;;;;0.80;0.70;;;27.60;1.00;;;;;;5070447;28;20447;-55
2023/08/14 09:45:06;;;;;;;2.70;0.80;;;27.70;1.00;;;;;;5072976;28;20835;-55
2023/08/14 09:47:35;;;;;;;0.90;0.80;;;27.80;1.00;;;;;;5071269;28;20457;-56
2023/08/14 09:50:03;;;;;;;1.10;0.70;;;27.90;1.00;;;;;;5072135;28;20473;-56
2023/08/14 09:52:30;;;;;;;1.00;0.80;;;28.00;1.00;;;;;;5071782;28;20450;-56
2023/08/14 09:54:58;;;;;;;1.60;0.80;;;28.10;1.00;;;;;;5071714;28;20506;-54
2023/08/14 09:57:27;;;;;;;1.33;0.70;;;28.20;1.00;;;;;;5070630;28;20902;-54
2023/08/14 09:59:55;;;;;;;1.48;0.70;;;28.00;1.00;;;;;;5071396;28;20439;-53
2023/08/14 10:02:24;;;;;;;0.98;0.70;;;28.10;1.00;;;;;;5078787;28;20804;-57
2023/08/14 10:04:51;;;;;;;1.20;0.80;;;28.40;1.00;;;;;;5091835;28;20503;-56
2023/08/14 10:07:19;;;;;;;1.10;0.80;;;28.50;1.00;;;;;;5090670;28;20410;-55
2023/08/14 10:09:50;;;;;;;1.10;0.80;;;28.70;1.00;;;;;;5090600;28;20409;-59
2023/08/14 10:12:22;;;;;;;1.63;0.80;;;28.80;99.90;;;;;;5091752;28;20439;-58
2023/08/14 10:14:58;;;;;;;1.50;1.00;;;29.00;99.90;;;;;;5091563;28;20423;-58
2023/08/14 10:17:31;;;;;;;1.40;0.70;;;29.20;86.30;;;;;;5092159;28;20520;-57
2023/08/14 10:20:01;;;;;;;1.00;0.80;;;29.30;1.00;;;;;;5072097;28;20438;-58
2023/08/14 10:22:29;;;;;;;1.10;0.75;;;29.40;1.00;;;;;;5071644;28;20469;-58
2023/08/14 10:24:56;;;;;;;1.30;0.80;;;29.60;1.00;;;;;;5074615;28;20518;-58
2023/08/14 10:27:26;;;;;;;1.00;0.70;;;29.80;99.90;;;;;;5071782;28;20423;-57
2023/08/14 10:29:54;;;;;;;1.00;0.70;;;30.00;1.00;;;;;;5072141;28;20526;-57
2023/08/14 10:32:24;;;;;;;1.20;0.90;;;30.10;1.00;;;;;;5069919;28;20530;-57
2023/08/14 10:34:51;;;;;;;1.20;0.80;;;30.40;99.90;;;;;;5071075;28;20516;-58
2023/08/14 10:37:28;;;;;;;1.00;0.80;;;30.80;99.90;;;;;;5071209;28;20517;-58
2023/08/14 10:40:12;;;;;;;1.30;0.70;;;31.10;99.90;;;;;;5073993;28;20435;-57
2023/08/14 10:42:42;;;;;;;1.10;0.80;;;31.20;99.90;;;;;;5075783;28;20934;-57
2023/08/14 10:45:11;;;;;;;1.10;0.80;;;31.50;27.80;;;;;;5072822;28;20788;-57
2023/08/14 10:47:39;;;;;;;1.00;0.80;;;31.40;1.00;;;;;;5079382;28;20939;-58
2023/08/14 10:50:14;;;;;;;1.27;0.80;;;31.40;1.00;;;;;;5092339;28;20422;-58
2023/08/14 10:52:46;;;;;;;1.23;0.70;;;31.70;1.00;;;;;;5094459;28;20464;-58
2023/08/14 10:55:18;;;;;;;1.38;0.82;;;31.70;1.00;;;;;;5087077;28;20405;-58
2023/08/14 10:57:47;;;;;;;1.30;0.75;;;31.60;1.00;;;;;;5081878;28;20477;-58
2023/08/14 11:00:22;;;;;;;1.20;0.80;;;31.50;1.00;;;;;;5074609;28;20435;-58
2023/08/14 11:02:54;;;;;;;1.10;0.90;;;31.40;1.00;;;;;;5078517;28;20514;-57
2023/08/14 11:05:21;;;;;;;2.30;0.90;;;30.90;99.90;;;;;;5076556;28;20434;-58
2023/08/14 11:07:58;;;;;;;1.20;0.80;;;30.70;1.00;;;;;;5087664;28;20763;-57
2023/08/14 11:10:26;;;;;;;1.35;0.70;;;30.60;1.00;;;;;;5093632;28;20906;-58
2023/08/14 11:12:54;;;;;;;1.10;0.70;;;30.50;1.00;;;;;;5080463;28;20499;-58
2023/08/14 11:15:23;;;;;;;1.20;0.90;;;30.50;1.00;;;;;;5080141;28;20434;-58
2023/08/14 11:17:50;;;;;;;0.90;0.80;;;30.70;1.00;;;;;;5082196;28;20530;-58
2023/08/14 11:20:17;;;;;;;1.00;0.80;;;30.90;1.00;;;;;;5075173;28;20441;-58
2023/08/14 11:22:45;;;;;;;1.13;0.80;;;31.00;99.90;;;;;;5092488;28;20487;-58
2023/08/14 11:25:14;;;;;;;0.90;0.70;;;31.10;99.90;;;;;;5090418;28;20838;-58
2023/08/14 11:27:49;;;;;;;2.00;0.70;;;31.10;99.90;;;;;;5085481;28;20442;-59
2023/08/14 11:30:19;;;;;;;1.30;0.80;;;31.00;99.90;;;;;;5074407;28;20510;-57
2023/08/14 11:32:48;;;;;;;1.10;0.80;;;31.10;99.90;;;;;;5087801;28;20548;-59
2023/08/14 11:35:15;;;;;;;1.20;0.80;;;31.20;1.00;;;;;;5094692;28;20421;-58
2023/08/14 11:37:42;;;;;;;1.10;0.80;;;31.30;99.90;;;;;;5093232;28;21031;-58
2023/08/14 11:40:11;;;;;;;1.80;1.00;;;31.60;21.00;;;;;;5093602;28;20647;-58
2023/08/14 11:42:40;;;;;;;1.10;0.90;;;31.90;1.00;;;;;;5094415;28;20430;-58
2023/08/14 11:45:08;;;;;;;1.20;0.90;;;32.40;1.00;;;;;;5096181;28;20418;-58
2023/08/14 11:47:36;;;;;;;1.20;0.90;;;32.80;99.90;;;;;;5093675;28;20448;-57
2023/08/14 11:50:06;;;;;;;1.00;0.80;;;32.60;99.90;;;;;;5087688;28;20465;-58
2023/08/14 11:52:35;;;;;;;0.90;0.70;;;32.50;99.90;;;;;;5089583;28;20410;-57
2023/08/14 11:55:02;;;;;;;1.20;0.90;;;32.50;99.90;;;;;;5073374;28;20428;-58
2023/08/14 11:57:31;;;;;;;1.00;0.80;;;32.70;99.90;;;;;;5075368;28;20431;-57
2023/08/14 12:00:06;;;;;;;1.00;0.80;;;32.80;99.90;;;;;;5082857;28;20444;-58
2023/08/14 12:02:32;;;;;;;1.00;0.80;;;32.70;99.90;;;;;;5094022;28;20453;-58
2023/08/14 12:05:02;;;;;;;1.10;0.88;;;32.30;99.90;;;;;;5092254;28;20429;-58
2023/08/14 12:07:31;;;;;;;1.90;0.90;;;32.40;99.90;;;;;;5082126;28;20486;-58
2023/08/14 12:09:58;;;;;;;1.08;0.80;;;32.80;99.90;;;;;;5093150;28;20417;-58
2023/08/14 12:12:26;;;;;;;1.00;0.80;;;32.90;93.30;;;;;;5092145;28;20641;-58
2023/08/14 12:14:54;;;;;;;1.33;0.82;;;32.60;99.90;;;;;;5074635;28;20438;-58
2023/08/14 12:17:21;;;;;;;1.10;1.00;;;32.40;99.90;;;;;;5074660;28;20873;-58
2023/08/14 12:19:52;;;;;;;1.13;0.80;;;32.20;99.90;;;;;;5073762;28;20814;-58
2023/08/14 12:22:23;;;;;;;1.02;0.80;;;32.20;99.90;;;;;;5075446;28;20864;-59
2023/08/14 12:24:51;;;;;;;1.73;0.90;;;32.40;99.90;;;;;;5094145;28;20823;-58
2023/08/14 12:27:19;;;;;;;1.00;0.90;;;32.50;99.90;;;;;;5089772;28;20552;-58
2023/08/14 12:29:47;;;;;;;1.30;0.80;;;32.20;99.90;;;;;;5094361;28;20441;-58
2023/08/14 12:32:14;;;;;;;1.00;0.77;;;32.00;99.90;;;;;;5088943;28;20764;-58
2023/08/14 12:34:41;;;;;;;2.20;0.85;;;31.80;99.90;;;;;;5094490;28;20425;-58
2023/08/14 12:37:10;;;;;;;1.00;0.80;;;31.40;99.90;;;;;;5093571;28;20900;-58
2023/08/14 12:39:40;;;;;;;2.30;0.90;;;31.10;99.90;;;;;;5095332;28;20440;-58
2023/08/14 12:42:09;;;;;;;1.60;0.80;;;30.70;99.90;;;;;;5082777;28;20526;-58
2023/08/14 12:44:36;;;;;;;1.00;0.70;;;30.30;99.90;;;;;;5072961;28;20463;-58
2023/08/14 12:47:03;;;;;;;1.00;0.70;;;29.70;83.60;;;;;;5077827;28;20533;-58
2023/08/14 12:49:30;;;;;;;1.00;0.80;;;29.40;1.00;;;;;;5073802;28;20835;-58
2023/08/14 12:51:59;;;;;;;1.40;0.80;;;29.10;1.00;;;;;;5080038;28;20430;-58